Time;durP1;ratioP1;P1;durP2;ratioP2;P2;SDS_P1;SDS_P2;PMS_P1;PMS_P2;Temp;Humidity;BMP_temperature;BMP_pressure;BME280_temperature;BME280_humidity;BME280_pressure;Samples;Min_cycle;Max_cycle;Signal;HPM_P1;HPM_P2
2022/04/19 00:01:07;;;;;;;5.90;3.90;;;;;;;12.13;61.81;100664.53;5001844;27;102637;-49
2022/04/19 00:03:34;;;;;;;6.93;4.53;;;;;;;12.14;61.64;100660.69;5000930;27;102336;-49
2022/04/19 00:06:01;;;;;;;6.07;4.18;;;;;;;12.13;61.55;100650.88;4997985;27;102605;-49
2022/04/19 00:08:28;;;;;;;7.15;4.78;;;;;;;12.13;61.53;100653.63;5004225;27;103863;-50
2022/04/19 00:10:54;;;;;;;6.85;4.30;;;;;;;12.13;61.78;100656.34;5023215;27;102271;-49
2022/04/19 00:13:32;;;;;;;6.90;4.25;;;;;;;12.14;61.38;100655.25;4999376;28;102342;-49
2022/04/19 00:15:59;;;;;;;6.18;4.45;;;;;;;12.13;61.86;100648.16;5002580;27;102892;-48
2022/04/19 00:18:27;;;;;;;5.18;3.90;;;;;;;12.13;61.50;100650.06;5006913;28;103834;-48
2022/04/19 00:20:54;;;;;;;5.68;4.32;;;;;;;12.14;61.68;100655.25;5012491;27;102506;-49
2022/04/19 00:23:38;;;;;;;5.82;4.07;;;;;;;12.13;61.78;100647.34;5009889;27;102622;-49
2022/04/19 00:26:04;;;;;;;6.35;4.40;;;;;;;12.14;61.74;100644.31;5034675;27;102550;-49
2022/04/19 00:28:32;;;;;;;7.50;4.60;;;;;;;12.14;61.73;100643.50;5020567;27;103874;-48
2022/04/19 00:30:58;;;;;;;5.85;4.50;;;;;;;12.13;61.78;100653.63;5004456;27;102454;-49
2022/04/19 00:33:27;;;;;;;5.07;3.88;;;;;;;12.13;61.69;100650.88;4990629;28;102365;-48
2022/04/19 00:35:53;;;;;;;6.72;4.35;;;;;;;12.14;62.05;100657.97;5005574;28;102733;-49
2022/04/19 00:38:20;;;;;;;7.13;5.07;;;;;;;12.13;61.87;100653.63;4990118;28;103984;-50
2022/04/19 00:40:57;;;;;;;5.57;4.47;;;;;;;12.13;61.72;100647.34;5007332;28;102307;-48
2022/04/19 00:43:26;;;;;;;5.88;4.55;;;;;;;12.13;61.89;100648.16;5004673;27;102619;-49
2022/04/19 00:45:57;;;;;;;5.88;4.45;;;;;;;12.13;62.22;100656.34;4997206;27;102625;-49
2022/04/19 00:48:23;;;;;;;6.25;4.78;;;;;;;12.13;62.08;100652.81;5002484;28;103827;-49
2022/04/19 00:50:51;;;;;;;5.97;4.40;;;;;;;12.13;61.62;100656.34;5006059;27;102284;-50
2022/04/19 00:53:18;;;;;;;6.07;4.63;;;;;;;12.13;61.88;100652.81;5003087;28;102129;-51
2022/04/19 00:55:45;;;;;;;7.28;5.00;;;;;;;12.12;62.13;100646.53;5007140;28;102225;-50
2022/04/19 00:58:13;;;;;;;6.50;4.60;;;;;;;12.11;61.94;100639.44;5007729;27;104163;-51
2022/04/19 01:00:39;;;;;;;6.05;4.68;;;;;;;12.12;61.99;100646.53;5007089;27;102507;-50
2022/04/19 01:03:08;;;;;;;5.50;4.43;;;;;;;12.12;61.92;100635.63;5000871;27;102020;-49
2022/04/19 01:05:35;;;;;;;6.22;4.60;;;;;;;12.12;62.07;100623.91;5003507;28;102325;-50
2022/04/19 01:08:23;;;;;;;5.75;4.38;;;;;;;12.11;62.06;100623.06;5006511;27;104723;-50
2022/04/19 01:13:16;;;;;;;6.87;4.53;;;;;;;12.12;62.07;100624.72;5005185;27;102576;-49
2022/04/19 01:13:37;;;;;;;5.68;4.50;;;;;;;12.11;61.98;100622.25;5005635;28;102153;-48
2022/04/19 01:16:05;;;;;;;6.40;4.30;;;;;;;12.11;62.03;100617.59;5007506;28;102209;-49
2022/04/19 01:18:33;;;;;;;6.38;4.65;;;;;;;12.11;62.29;100617.59;5005501;27;104431;-49
2022/04/19 01:21:00;;;;;;;5.03;4.20;;;;;;;12.10;61.86;100616.00;5016748;27;103221;-49
2022/04/19 01:23:31;;;;;;;6.60;4.30;;;;;;;12.11;62.02;100617.59;5025453;27;102138;-48
2022/04/19 01:25:58;;;;;;;4.57;4.03;;;;;;;12.10;61.98;100618.72;5022449;27;102154;-49
2022/04/19 01:28:25;;;;;;;5.70;4.13;;;;;;;12.11;61.99;100617.59;5016452;27;103672;-49
2022/04/19 01:30:54;;;;;;;7.57;4.00;;;;;;;12.11;62.02;100625.78;5008257;27;102372;-49
2022/04/19 01:33:22;;;;;;;5.13;3.83;;;;;;;12.11;62.20;100620.34;5009916;27;102243;-49
2022/04/19 01:35:50;;;;;;;5.63;3.92;;;;;;;12.10;62.00;100623.34;5010535;27;104764;-49
2022/04/19 01:38:17;;;;;;;5.50;3.88;;;;;;;12.10;62.09;100610.53;5007223;27;103947;-48
2022/04/19 01:40:45;;;;;;;5.50;3.72;;;;;;;12.10;62.41;100610.53;5002534;27;105658;-51
2022/04/19 01:43:13;;;;;;;4.63;3.58;;;;;;;12.10;62.12;100610.53;5007083;27;102548;-50
2022/04/19 01:45:41;;;;;;;4.65;3.40;;;;;;;12.10;62.03;100610.53;5010796;28;103263;-49
2022/04/19 01:48:08;;;;;;;4.88;3.70;;;;;;;12.10;62.30;100609.72;5004351;28;104030;-49
2022/04/19 01:50:43;;;;;;;4.60;3.75;;;;;;;12.08;62.35;100607.28;4994910;28;101954;-49
2022/04/19 01:53:12;;;;;;;4.63;3.65;;;;;;;12.08;62.40;100610.00;4993006;28;102841;-50
2022/04/19 01:55:39;;;;;;;4.40;3.70;;;;;;;12.09;61.99;100610.81;5009890;27;102202;-50
2022/04/19 01:58:06;;;;;;;4.20;3.58;;;;;;;12.09;61.80;100619.81;4995422;28;103861;-49
2022/04/19 02:00:33;;;;;;;5.07;3.80;;;;;;;12.08;62.16;100620.94;5027660;27;102650;-49
2022/04/19 02:03:03;;;;;;;5.07;3.70;;;;;;;12.10;61.87;100626.09;5003905;27;102437;-49
2022/04/19 02:05:29;;;;;;;5.22;3.72;;;;;;;12.08;61.84;100626.38;5008224;27;102798;-50
2022/04/19 02:07:56;;;;;;;6.22;3.42;;;;;;;12.08;62.08;100634.56;4990631;28;103932;-48
2022/04/19 02:10:22;;;;;;;4.20;3.33;;;;;;;12.08;62.13;100622.81;5008737;27;102368;-48
2022/04/19 02:13:07;;;;;;;4.47;3.83;;;;;;;12.08;62.19;100623.66;5008058;27;102536;-49
2022/04/19 02:15:37;;;;;;;5.50;4.07;;;;;;;12.08;62.24;100618.19;4994563;28;102601;-49
2022/04/19 02:18:05;;;;;;;4.78;3.70;;;;;;;12.08;61.81;100629.13;4991165;28;103921;-49
2022/04/19 02:20:33;;;;;;;4.70;3.55;;;;;;;12.08;62.36;100628.28;4993755;27;102337;-50
2022/04/19 02:23:00;;;;;;;4.90;3.88;;;;;;;12.08;62.24;100617.34;5005677;27;104405;-51
2022/04/19 02:25:34;;;;;;;6.70;3.78;;;;;;;12.08;62.24;100617.34;4993609;28;102482;-49
2022/04/19 02:28:01;;;;;;;4.85;3.70;;;;;;;12.08;62.04;100618.19;4991265;28;103894;-49
2022/04/19 02:30:31;;;;;;;5.97;3.60;;;;;;;12.08;62.19;100620.09;4994868;28;102330;-49
2022/04/19 02:32:57;;;;;;;3.90;3.45;;;;;;;12.07;62.23;100619.28;5041835;27;102384;-49
2022/04/19 02:35:27;;;;;;;5.82;3.30;;;;;;;12.07;62.36;100622.00;5040728;27;102180;-50
2022/04/19 02:37:56;;;;;;;5.88;3.95;;;;;;;12.07;62.44;100616.53;4994491;27;103887;-49
2022/04/19 02:40:24;;;;;;;4.13;3.60;;;;;;;12.08;62.38;100622.81;5024506;27;102426;-50
2022/04/19 02:42:52;;;;;;;3.80;3.40;;;;;;;12.07;62.19;100630.19;5009641;27;102403;-49
2022/04/19 02:45:22;;;;;;;4.82;3.60;;;;;;;12.08;62.30;100623.66;5010339;27;102315;-49
2022/04/19 02:48:03;;;;;;;4.60;3.25;;;;;;;12.06;62.27;100625.84;5007141;27;108394;-50
2022/04/19 02:50:29;;;;;;;5.57;3.90;;;;;;;12.08;62.43;100628.28;5008367;28;102120;-49
2022/04/19 02:53:06;;;;;;;4.63;3.70;;;;;;;12.07;62.46;100622.00;5004639;28;102078;-49
2022/04/19 02:55:33;;;;;;;4.55;3.63;;;;;;;12.06;62.61;100625.84;5002526;28;102176;-49
2022/04/19 02:58:00;;;;;;;5.53;3.30;;;;;;;12.07;62.15;100640.28;5002861;28;104114;-49
2022/04/19 03:00:26;;;;;;;5.03;3.67;;;;;;;12.06;62.73;100636.75;5019048;27;102582;-50
2022/04/19 03:02:55;;;;;;;4.80;3.63;;;;;;;12.07;62.07;100638.38;5033235;27;102374;-49
2022/04/19 03:05:40;;;;;;;4.20;3.60;;;;;;;12.06;62.44;100636.75;5021451;27;102526;-49
2022/04/19 03:08:07;;;;;;;5.28;3.85;;;;;;;12.06;62.69;100636.75;4999967;27;103870;-49
2022/04/19 03:10:33;;;;;;;5.78;3.58;;;;;;;12.07;62.38;100643.00;5003023;27;102473;-49
2022/04/19 03:13:01;;;;;;;5.07;3.75;;;;;;;12.06;62.28;100642.19;5006244;27;102584;-49
2022/04/19 03:15:29;;;;;;;5.00;3.93;;;;;;;12.06;62.45;100644.94;5019688;27;102497;-49
2022/04/19 03:17:57;;;;;;;5.20;3.58;;;;;;;12.06;62.50;100658.56;5015903;27;103966;-50
2022/04/19 03:20:24;;;;;;;;;;;;;;;12.06;62.45;100655.84;5007031;28;102379;-50
2022/04/19 03:28:34;;;;;;;3.97;3.33;;;;;;;12.05;62.53;100667.84;5007604;28;103909;-50
2022/04/19 03:31:01;;;;;;;4.60;3.50;;;;;;;12.06;62.59;100677.66;5002300;28;102548;-49
2022/04/19 03:33:29;;;;;;;4.05;3.47;;;;;;;12.07;62.51;100681.22;4999074;28;102026;-50
2022/04/19 03:35:56;;;;;;;4.72;3.80;;;;;;;12.06;62.23;100683.13;5010833;27;102341;-49
2022/04/19 03:38:24;;;;;;;5.05;3.65;;;;;;;12.06;62.53;100688.56;4998767;28;104001;-51
2022/04/19 03:40:50;;;;;;;4.45;3.38;;;;;;;12.06;62.53;100687.75;5009252;28;102419;-49
2022/04/19 03:43:17;;;;;;;5.68;3.55;;;;;;;12.06;62.65;100680.41;5005994;28;102618;-49
2022/04/19 03:45:51;;;;;;;4.55;3.92;;;;;;;12.07;62.61;100675.75;4998899;27;102233;-50
2022/04/19 03:48:19;;;;;;;5.20;3.47;;;;;;;12.07;62.62;100687.47;5023296;27;103883;-49
2022/04/19 03:50:47;;;;;;;4.50;3.55;;;;;;;12.07;62.52;100687.47;4999387;28;102771;-49
2022/04/19 03:53:14;;;;;;;4.68;3.53;;;;;;;12.08;62.61;100689.13;4995904;27;102582;-49
2022/04/19 03:55:41;;;;;;;5.13;3.42;;;;;;;12.09;62.30;100684.47;5001316;27;102806;-48
2022/04/19 03:58:07;;;;;;;4.32;3.60;;;;;;;12.10;62.44;100686.09;5007929;27;103866;-48
2022/04/19 04:00:40;;;;;;;4.10;3.45;;;;;;;12.09;62.46;100679.84;5016397;27;102033;-49
2022/04/19 04:03:07;;;;;;;5.13;3.58;;;;;;;12.11;62.56;100683.06;5027291;27;102371;-49
2022/04/19 04:05:34;;;;;;;5.47;3.75;;;;;;;12.12;62.60;100679.28;5028982;27;102606;-49
2022/04/19 04:08:03;;;;;;;3.83;3.25;;;;;;;12.14;62.65;100687.97;5018768;27;103858;-48
2022/04/19 04:10:51;;;;;;;3.85;3.35;;;;;;;12.13;62.53;100683.63;5017846;27;102549;-49
2022/04/19 04:13:18;;;;;;;;;;;;;;;12.14;62.45;100687.97;5004884;27;102546;-50
2022/04/19 04:15:46;;;;;;;4.78;3.78;;;;;;;12.16;62.63;100687.72;5007617;27;103087;-49
2022/04/19 04:18:12;;;;;;;5.47;3.83;;;;;;;12.17;62.59;100687.41;5007697;27;104218;-49
2022/04/19 04:20:56;;;;;;;5.13;3.58;;;;;;;12.18;62.44;100689.03;5005060;27;102407;-49
2022/04/19 04:23:23;;;;;;;4.80;4.00;;;;;;;12.19;62.39;100698.88;5002330;28;102696;-48
2022/04/19 04:25:50;;;;;;;4.70;3.78;;;;;;;12.19;62.42;100696.16;5007987;27;102511;-51
2022/04/19 04:28:18;;;;;;;5.47;3.75;;;;;;;12.20;62.55;100697.75;5005418;27;103875;-49
2022/04/19 04:30:45;;;;;;;4.90;3.78;;;;;;;12.22;62.15;100705.66;5002043;28;102385;-49
2022/04/19 04:33:14;;;;;;;6.07;3.88;;;;;;;12.22;62.37;100698.28;4998224;28;102341;-50
2022/04/19 04:35:40;;;;;;;4.15;3.67;;;;;;;12.23;62.36;100694.47;5000074;28;102489;-50
2022/04/19 04:38:07;;;;;;;5.13;3.85;;;;;;;12.23;62.47;100694.47;5005949;28;103872;-49
2022/04/19 04:40:36;;;;;;;4.28;3.50;;;;;;;12.24;62.16;100687.91;5000930;28;102368;-49
2022/04/19 04:43:02;;;;;;;4.97;3.63;;;;;;;12.26;62.19;100684.88;5003465;28;102348;-50
2022/04/19 04:45:29;;;;;;;4.95;3.75;;;;;;;12.26;62.44;100679.44;5002735;28;102729;-50
2022/04/19 04:50:42;;;;;;;4.43;3.42;;;;;;;12.27;62.23;100684.63;5000903;28;102123;-49
2022/04/19 04:53:09;;;;;;;4.93;3.45;;;;;;;12.28;62.23;100682.69;4999767;27;102683;-48
2022/04/19 04:55:37;;;;;;;4.63;3.40;;;;;;;12.28;62.35;100677.25;5004704;28;102401;-49
2022/04/19 04:58:15;;;;;;;5.82;3.33;;;;;;;12.30;62.15;100696.06;4998043;28;103926;-50
2022/04/19 05:00:41;;;;;;;5.38;3.80;;;;;;;12.31;62.32;100686.78;4994593;28;102790;-49
2022/04/19 05:03:08;;;;;;;5.35;3.78;;;;;;;12.30;62.27;100685.13;4997424;27;102592;-50
2022/04/19 05:05:34;;;;;;;5.22;3.60;;;;;;;12.31;62.24;100687.59;5011838;27;102073;-49
2022/04/19 05:08:02;;;;;;;3.75;3.30;;;;;;;12.32;62.20;100677.50;5007101;28;103812;-49
2022/04/19 05:10:33;;;;;;;5.05;3.42;;;;;;;12.33;62.11;100676.38;5008073;27;102664;-49
2022/04/19 05:13:01;;;;;;;4.78;3.85;;;;;;;12.34;62.14;100664.41;5007194;28;103914;-48
2022/04/19 05:15:28;;;;;;;4.97;3.35;;;;;;;12.34;62.13;100661.66;5013684;27;102445;-49
2022/04/19 05:18:01;;;;;;;5.63;3.97;;;;;;;12.36;62.15;100664.91;5030311;27;103917;-48
2022/04/19 05:20:28;;;;;;;4.47;3.63;;;;;;;12.35;62.32;100657.84;5026039;27;102123;-48
2022/04/19 05:22:56;;;;;;;6.07;3.95;;;;;;;12.37;61.99;100663.81;5016297;27;102563;-49
2022/04/19 05:25:22;;;;;;;6.07;3.33;;;;;;;12.37;62.09;100653.72;5007447;27;102171;-49
2022/04/19 05:27:49;;;;;;;4.63;3.40;;;;;;;12.37;61.66;100642.81;4997265;27;103858;-48
2022/04/19 05:30:17;;;;;;;4.57;3.38;;;;;;;12.39;62.09;100639.78;4994266;28;102353;-49
2022/04/19 05:33:03;;;;;;;4.47;3.22;;;;;;;12.39;62.06;100639.78;4992880;27;102672;-49
2022/04/19 05:35:29;;;;;;;5.78;3.88;;;;;;;12.40;61.98;100641.41;5009177;27;102687;-48
2022/04/19 05:37:58;;;;;;;3.80;3.30;;;;;;;12.41;61.91;100637.59;5007964;27;104000;-49
2022/04/19 05:40:27;;;;;;;4.32;3.40;;;;;;;12.41;61.83;100643.88;4997477;27;102404;-49
2022/04/19 05:42:54;;;;;;;4.55;3.13;;;;;;;12.40;61.90;100647.66;4991953;27;101887;-49
2022/04/19 05:45:22;;;;;;;3.55;3.13;;;;;;;12.41;61.81;100648.50;4994147;28;102538;-48
2022/04/19 05:47:57;;;;;;;4.88;3.63;;;;;;;12.41;61.77;100640.31;5008014;27;103742;-49
2022/04/19 05:50:24;;;;;;;4.80;3.72;;;;;;;12.41;61.70;100638.41;5006397;27;102548;-51
2022/04/19 05:52:51;;;;;;;4.20;3.25;;;;;;;12.42;61.75;100650.13;4992171;27;102215;-48
2022/04/19 05:55:23;;;;;;;3.88;3.38;;;;;;;12.41;62.06;100652.06;4994183;27;102079;-50
2022/04/19 05:57:50;;;;;;;5.25;3.30;;;;;;;12.43;61.66;100657.22;5006802;27;103904;-48
2022/04/19 06:00:17;;;;;;;3.75;3.33;;;;;;;12.42;61.77;100656.41;5007827;27;102179;-49
2022/04/19 06:05:30;;;;;;;3.67;3.08;;;;;;;12.44;61.74;100653.38;5004388;27;102668;-51
2022/04/19 06:07:58;;;;;;;3.60;2.80;;;;;;;12.44;61.78;100643.28;4992009;27;103708;-48
2022/04/19 06:10:25;;;;;;;4.00;3.08;;;;;;;12.43;61.90;100649.84;5002374;27;102178;-49
2022/04/19 06:12:51;;;;;;;3.33;3.03;;;;;;;12.44;61.93;100654.22;5006422;27;102218;-49
2022/04/19 06:15:18;;;;;;;4.43;3.10;;;;;;;12.45;61.68;100649.56;4995567;28;102445;-49
2022/04/19 06:17:46;;;;;;;3.83;3.05;;;;;;;12.45;61.61;100649.56;5000481;27;103881;-49
2022/04/19 06:20:20;;;;;;;3.78;2.95;;;;;;;12.43;61.49;100651.75;5008088;28;102110;-49
2022/04/19 06:22:46;;;;;;;3.78;3.17;;;;;;;12.45;61.68;100646.84;4999319;27;102758;-49
2022/04/19 06:25:13;;;;;;;3.15;2.70;;;;;;;12.45;61.94;100636.72;5004801;27;102036;-49
2022/04/19 06:27:40;;;;;;;3.78;2.97;;;;;;;12.45;61.64;100625.00;5009346;27;103869;-49
2022/04/19 06:30:09;;;;;;;4.00;2.87;;;;;;;12.47;61.62;100636.44;5005194;27;102743;-51
2022/04/19 06:32:36;;;;;;;3.88;2.78;;;;;;;12.46;61.63;100646.53;5024124;27;102744;-49
2022/04/19 06:35:08;;;;;;;3.72;2.85;;;;;;;12.46;61.59;100640.28;5028968;27;102224;-49
2022/04/19 06:37:36;;;;;;;2.90;2.60;;;;;;;12.47;61.59;100645.44;5020573;27;103942;-49
2022/04/19 06:40:03;;;;;;;3.65;3.30;;;;;;;12.46;61.39;100641.06;5001550;28;102425;-49
2022/04/19 06:42:32;;;;;;;3.33;2.80;;;;;;;12.47;61.36;100647.34;5006762;28;102384;-48
2022/04/19 06:44:58;;;;;;;3.42;2.95;;;;;;;12.46;61.26;100645.72;5007230;27;102625;-48
2022/04/19 06:47:25;;;;;;;3.33;2.83;;;;;;;12.46;60.78;100635.63;5000543;27;104432;-49
2022/04/19 06:49:57;;;;;;;5.25;3.28;;;;;;;12.45;60.59;100634.00;5000759;28;102252;-48
2022/04/19 06:52:25;;;;;;;3.17;2.60;;;;;;;12.45;60.88;100644.91;5005717;28;102778;-49
2022/04/19 06:54:53;;;;;;;3.33;2.80;;;;;;;12.45;61.00;100633.19;5005412;27;102993;-49
2022/04/19 06:57:23;;;;;;;2.88;2.67;;;;;;;12.46;60.92;100629.34;5007767;27;103879;-48
2022/04/19 06:59:49;;;;;;;3.20;2.60;;;;;;;12.46;60.90;100634.81;5006717;27;102391;-49
2022/04/19 07:02:16;;;;;;;3.97;2.90;;;;;;;12.46;60.93;100632.09;4998000;27;102623;-51
2022/04/19 07:04:44;;;;;;;3.75;2.50;;;;;;;12.44;60.60;100646.03;4999943;27;102622;-50
2022/04/19 07:07:12;;;;;;;3.45;2.92;;;;;;;12.45;60.20;100630.47;5006022;27;103651;-49
2022/04/19 07:09:40;;;;;;;3.67;2.65;;;;;;;12.42;60.37;100633.75;4992732;28;102291;-49
2022/04/19 07:12:19;;;;;;;4.10;2.92;;;;;;;12.39;59.85;100639.78;5002156;27;102646;-49
2022/04/19 07:14:47;;;;;;;3.42;2.80;;;;;;;12.39;59.70;100631.59;5000546;28;102592;-49
2022/04/19 07:17:13;;;;;;;3.10;2.65;;;;;;;12.39;59.85;100639.78;4997985;28;103963;-48
2022/04/19 07:28:01;;;;;;;2.70;2.40;;;;;;;12.40;59.75;100619.56;5020746;27;103668;-50
2022/04/19 07:30:28;;;;;;;2.60;2.40;;;;;;;12.40;59.65;100619.56;5020799;27;102094;-49
2022/04/19 07:32:55;;;;;;;2.45;2.17;;;;;;;12.41;59.76;100610.31;5027487;27;102514;-52
2022/04/19 07:35:21;;;;;;;3.72;2.40;;;;;;;12.42;59.72;100611.91;5019177;27;102435;-48
2022/04/19 07:37:56;;;;;;;2.13;1.90;;;;;;;12.41;59.89;100613.03;5018997;27;104053;-48
2022/04/19 07:40:24;;;;;;;2.70;2.50;;;;;;;12.41;59.87;100605.66;5019882;27;102417;-50
2022/04/19 07:42:51;;;;;;;2.38;2.17;;;;;;;12.42;60.05;100611.91;5004809;27;104294;-49
2022/04/19 07:45:19;;;;;;;2.78;2.58;;;;;;;12.43;60.09;100608.09;5004351;27;102584;-49
2022/04/19 07:47:45;;;;;;;3.22;2.28;;;;;;;12.42;59.87;100612.72;5016034;27;104061;-49
2022/04/19 07:50:21;;;;;;;3.05;2.40;;;;;;;12.43;59.94;100605.34;5002196;27;102157;-49
2022/04/19 07:52:49;;;;;;;3.10;1.93;;;;;;;12.42;59.80;100611.91;5004635;27;102563;-48
2022/04/19 07:55:16;;;;;;;2.53;2.33;;;;;;;12.44;59.95;100607.81;5013713;27;102394;-48
2022/04/19 07:57:44;;;;;;;2.60;2.28;;;;;;;12.43;60.02;100599.91;5004164;27;103807;-48
2022/04/19 08:00:11;;;;;;;2.83;2.22;;;;;;;12.44;59.81;100593.31;5006612;27;102567;-49
2022/04/19 08:02:38;;;;;;;2.22;2.03;;;;;;;12.44;59.91;100588.72;4998802;27;102588;-49
2022/04/19 08:05:05;;;;;;;2.28;2.05;;;;;;;12.47;60.16;100609.94;5006901;28;102376;-50
2022/04/19 08:07:34;;;;;;;2.70;2.00;;;;;;;12.46;59.99;100604.78;4998009;27;104122;-48
2022/04/19 08:10:00;;;;;;;2.03;1.88;;;;;;;12.45;60.31;100600.44;5002306;27;102416;-49
2022/04/19 08:12:28;;;;;;;2.50;1.90;;;;;;;12.46;60.02;100596.59;5004129;27;102448;-50
2022/04/19 08:14:56;;;;;;;2.63;1.95;;;;;;;12.46;59.96;100591.94;5006041;27;102649;-49
2022/04/19 08:17:22;;;;;;;2.13;1.85;;;;;;;12.46;59.85;100574.75;5006938;27;104075;-50
2022/04/19 08:19:51;;;;;;;2.33;2.00;;;;;;;12.47;60.07;100587.31;5002678;27;102529;-50
2022/04/19 08:22:18;;;;;;;2.97;2.05;;;;;;;12.46;60.12;100583.75;5006969;27;102132;-49
2022/04/19 08:24:44;;;;;;;2.05;1.85;;;;;;;12.47;60.25;100576.38;5008589;28;102457;-48
2022/04/19 08:27:15;;;;;;;2.15;1.95;;;;;;;12.48;60.05;100583.50;5006349;28;104057;-49
2022/04/19 08:29:45;;;;;;;2.22;2.03;;;;;;;12.48;60.31;100573.38;5000635;27;102423;-49
2022/04/19 08:32:13;;;;;;;3.05;2.55;;;;;;;12.49;60.57;100563.28;5003782;28;102381;-49
2022/04/19 08:34:40;;;;;;;2.40;2.20;;;;;;;12.49;60.36;100561.34;5005117;28;102595;-49
2022/04/19 08:37:07;;;;;;;2.47;1.90;;;;;;;12.50;60.51;100570.34;5000318;27;103853;-50
2022/04/19 08:39:33;;;;;;;2.20;2.00;;;;;;;12.49;60.28;100572.28;5004549;28;102560;-49
2022/04/19 08:42:00;;;;;;;2.60;2.22;;;;;;;12.50;60.20;100564.91;5003374;28;102456;-51
2022/04/19 08:44:27;;;;;;;2.92;2.10;;;;;;;12.49;60.27;100564.09;5008799;28;102218;-48
2022/04/19 08:46:57;;;;;;;2.10;1.90;;;;;;;12.49;60.12;100569.53;5003471;28;104045;-49
2022/04/19 08:49:25;;;;;;;2.80;2.00;;;;;;;12.48;60.06;100567.94;5000678;28;102249;-49
2022/04/19 08:51:53;;;;;;;3.13;2.83;;;;;;;12.49;60.21;100579.66;4997468;28;102582;-49
2022/04/19 08:59:54;;;;;;;2.30;2.08;;;;;;;12.48;60.12;100575.31;5003213;28;102401;-49
2022/04/19 09:02:22;;;;;;;2.60;2.08;;;;;;;12.48;59.91;100578.84;5004960;28;102377;-48
2022/04/19 09:05:10;;;;;;;2.50;2.28;;;;;;;12.46;59.29;100583.75;5008840;27;102402;-49
2022/04/19 09:07:37;;;;;;;2.20;1.90;;;;;;;12.45;58.65;100576.69;5005399;27;104068;-49
2022/04/19 09:10:07;;;;;;;2.08;1.88;;;;;;;12.45;59.13;100573.94;5002513;28;102466;-49
2022/04/19 09:12:34;;;;;;;2.17;1.70;;;;;;;12.45;59.19;100571.22;4998620;27;101981;-49
2022/04/19 09:15:06;;;;;;;1.80;1.60;;;;;;;12.45;59.39;100567.69;5005468;27;102188;-49
2022/04/19 09:17:48;;;;;;;2.20;2.00;;;;;;;12.44;59.65;100572.34;5000538;28;103966;-48
2022/04/19 09:20:20;;;;;;;1.70;1.60;;;;;;;12.46;59.72;100569.31;4997686;27;102509;-48
2022/04/19 09:22:50;;;;;;;2.92;1.85;;;;;;;12.46;59.27;100563.84;5005867;28;102079;-49
2022/04/19 09:25:19;;;;;;;2.70;1.92;;;;;;;12.46;59.20;100582.94;5017658;27;102331;-48
2022/04/19 09:27:47;;;;;;;1.90;1.80;;;;;;;12.46;59.52;100572.84;5012569;27;104486;-48
2022/04/19 09:30:17;;;;;;;2.28;1.75;;;;;;;12.45;59.52;100578.59;4999255;28;102475;-49
2022/04/19 09:33:09;;;;;;;1.80;1.70;;;;;;;12.45;59.57;100575.88;5000311;27;102159;-49
2022/04/19 09:35:40;;;;;;;3.03;1.98;;;;;;;12.45;59.52;100570.41;4992038;28;103304;-48
2022/04/19 09:38:08;;;;;;;2.03;1.70;;;;;;;12.46;59.83;100575.56;4994451;27;104938;-49
2022/04/19 09:40:38;;;;;;;1.95;1.52;;;;;;;12.45;59.69;100567.69;5002930;27;102472;-49
2022/04/19 09:43:10;;;;;;;1.83;1.73;;;;;;;12.46;59.55;100580.22;4997838;27;102812;-48
2022/04/19 09:45:55;;;;;;;2.55;1.98;;;;;;;12.46;60.02;100574.75;4999466;28;103896;-49
2022/04/19 09:48:23;;;;;;;4.07;1.70;;;;;;;12.46;59.75;100591.13;5038212;27;107868;-50
2022/04/19 09:50:57;;;;;;;2.13;1.73;;;;;;;12.46;59.75;100581.03;5008684;27;103028;-49
2022/04/19 09:53:25;;;;;;;2.03;1.70;;;;;;;12.47;59.71;100581.84;5004875;27;103169;-50
2022/04/19 09:55:59;;;;;;;2.20;1.90;;;;;;;12.47;59.82;100568.19;4998319;27;102034;-49
2022/04/19 09:58:27;;;;;;;2.90;1.70;;;;;;;12.46;59.48;100581.03;5003980;28;104101;-48
2022/04/19 10:00:54;;;;;;;2.72;2.05;;;;;;;12.46;59.42;100569.31;5006119;27;102235;-50
2022/04/19 10:09:00;;;;;;;1.80;1.70;;;;;;;12.45;58.86;100573.16;5001553;27;103862;-49
2022/04/19 10:11:28;;;;;;;2.20;1.92;;;;;;;12.42;58.84;100585.44;4995691;27;102988;-48
2022/04/19 10:13:56;;;;;;;1.98;1.63;;;;;;;12.43;58.94;100580.78;5005845;27;102470;-49
2022/04/19 10:16:27;;;;;;;2.00;1.75;;;;;;;12.41;58.91;100578.38;5010723;28;102511;-49
2022/04/19 10:18:54;;;;;;;1.80;1.70;;;;;;;12.42;59.27;100581.91;4997081;27;103901;-49
2022/04/19 10:21:34;;;;;;;2.10;1.85;;;;;;;12.43;59.47;100591.72;5002182;28;104030;-48
2022/04/19 10:24:10;;;;;;;3.20;1.75;;;;;;;12.42;59.17;100596.34;5008522;27;102400;-48
2022/04/19 10:26:45;;;;;;;1.98;1.60;;;;;;;12.42;59.11;100590.09;5013802;27;102649;-49
2022/04/19 10:29:19;;;;;;;1.80;1.70;;;;;;;12.42;58.96;100595.53;4992016;27;103989;-49
2022/04/19 10:31:54;;;;;;;1.77;1.60;;;;;;;12.42;59.21;100587.34;5007146;28;102407;-49
2022/04/19 10:34:24;;;;;;;1.50;1.40;;;;;;;12.42;59.20;100584.63;4993242;28;102885;-48
2022/04/19 10:36:57;;;;;;;2.13;1.60;;;;;;;12.40;59.00;100579.44;5004851;28;102843;-48
2022/04/19 10:39:26;;;;;;;1.77;1.65;;;;;;;12.41;59.02;100585.75;5006335;27;104259;-49
2022/04/19 10:41:57;;;;;;;47.17;22.25;;;;;;;12.41;58.75;100591.19;5002464;28;102405;-48
2022/04/19 10:44:32;;;;;;;1.80;1.70;;;;;;;12.39;58.84;100583.28;5001287;28;102390;-49
2022/04/19 10:47:06;;;;;;;1.85;1.70;;;;;;;12.38;58.64;100581.66;5005956;27;102237;-48
2022/04/19 10:49:51;;;;;;;1.80;1.70;;;;;;;12.40;59.01;100581.34;4992908;28;103992;-49
2022/04/19 10:52:48;;;;;;;2.00;1.80;;;;;;;12.40;58.98;100575.91;5008242;27;102325;-48
2022/04/19 10:55:23;;;;;;;1.80;1.58;;;;;;;12.39;58.89;100569.63;5004220;27;102064;-49
2022/04/19 10:58:09;;;;;;;1.88;1.67;;;;;;;12.40;59.18;100573.97;5019196;27;102431;-49
2022/04/19 11:00:41;;;;;;;1.70;1.60;;;;;;;12.39;58.63;100572.38;4995858;27;103866;-49
2022/04/19 11:03:11;;;;;;;1.70;1.40;;;;;;;12.39;58.54;100574.28;4998585;27;102926;-51
2022/04/19 11:05:44;;;;;;;1.70;1.58;;;;;;;12.39;58.45;100563.38;4999100;27;102134;-48
2022/04/19 11:08:38;;;;;;;1.45;1.35;;;;;;;12.38;58.53;100561.75;5000697;27;102385;-49
2022/04/19 11:11:22;;;;;;;1.92;1.67;;;;;;;12.37;58.11;100550.03;4995754;27;104159;-49
2022/04/19 11:14:20;;;;;;;2.00;1.63;;;;;;;12.35;57.60;100567.78;4997109;28;102869;-48
2022/04/19 11:16:51;;;;;;;1.90;1.48;;;;;;;12.35;57.16;100560.41;5004253;28;103850;-50
2022/04/19 11:19:21;;;;;;;1.30;1.20;;;;;;;12.34;57.45;100566.97;5006917;27;102588;-49
2022/04/19 11:22:06;;;;;;;1.58;1.40;;;;;;;12.34;57.40;100550.59;5003063;28;104004;-49
2022/04/19 11:25:04;;;;;;;1.70;1.42;;;;;;;12.34;57.86;100549.78;4995634;28;102867;-49
2022/04/19 11:28:14;;;;;;;1.23;1.00;;;;;;;12.35;58.16;100540.47;4995153;27;102584;-49
2022/04/19 11:30:45;;;;;;;1.67;1.42;;;;;;;12.35;57.81;100540.47;4996366;27;102559;-49
2022/04/19 11:33:21;;;;;;;1.83;1.40;;;;;;;12.35;58.07;100526.84;5021074;27;104827;-49
2022/04/19 11:36:00;;;;;;;1.98;1.33;;;;;;;12.34;58.10;100528.75;5003986;27;102272;-49
2022/04/19 11:38:27;;;;;;;;;;;;;;;12.35;58.76;100522.19;5000741;27;102920;-48
2022/04/19 11:46:46;;;;;;;1.88;1.60;;;;;;;12.36;58.16;100520.28;5000313;27;102406;-49
2022/04/19 11:49:31;;;;;;;1.55;1.40;;;;;;;12.35;57.48;100524.13;5003586;28;102261;-50
2022/04/19 11:52:00;;;;;;;2.25;1.55;;;;;;;12.35;57.79;100513.19;5022001;27;102113;-48
2022/04/19 11:54:28;;;;;;;1.50;1.35;;;;;;;12.35;58.28;100518.66;5003158;27;104005;-50
2022/04/19 11:56:57;;;;;;;1.58;1.40;;;;;;;12.35;58.18;100505.00;5006689;28;102802;-48
2022/04/19 11:59:26;;;;;;;2.20;1.70;;;;;;;12.35;57.75;100513.19;5006469;27;102719;-49
2022/04/19 12:01:53;;;;;;;2.65;1.27;;;;;;;12.35;57.95;100510.47;4999480;28;103800;-50
2022/04/19 12:04:21;;;;;;;1.85;1.52;;;;;;;12.33;57.89;100509.94;5000073;27;103543;-49
2022/04/19 12:06:48;;;;;;;2.65;1.60;;;;;;;12.33;57.77;100512.66;5006236;28;101911;-48